KAEX 191153Z 00000KT 6SM -RA BR CLR 24/24 A3000 RMK AO2 RAB45 SLP160 P0000 60000 T02390239 10250 20239 53013